Webb City, Missouri
Current Conditions -  °F | °C
As of 10:06 PM on Wednesday 26 Nov 2014 (Local Time) from KJLN Reporting Station
Broken Clouds Broken Clouds  
Wind Chill: 23°   Ceiling: 2800
Heat Index: 33°   Visibility: 10mi
Dew Point: 24°   Wind: 15mph
Humidity: 70%   Direction: 300°WNW
Pressure: 30.36"   Gusts: 23mph
Location:  37.15°N, 94.46°W
Report Text: KJLN 270406Z AUTO 30013G20KT 10SM BKN028 01/M04 A3036 RMK AO2 T00061044
Loading
Personal Weather Stations






























Interactive Weather Map New forecast layout! Learn more

10-Day Weather Forecast

Advertisements
Track Severe Weather on mobile